Colorado AWOS List, Phone Numbers, Maps

USA |  
| Search AWOS

Rocky Mountain States: Montana | Wyoming | Colorado | New Mexico

Complete weather reports: Colorado

Legend: KFNL = METAR available Follow your local AWOS on AV Mobile = METAR available on AV Mobile
Station Colorado Location Frequency Phone
KAKOFAA ID AKO, ASOS, KAKO 230553Z AUTO 13012KT 10SM CLR 06/02 A2981 RMK AO2 SLP076 T00610017 10189 20061 58016 Follow KAKO on AV Mobile COLORADO PLAINS REGIONAL 135.475 970-345-2320
KALSFAA ID ALS, ASOS, KALS 230552Z AUTO 20008KT 10SM SCT110 08/M06 A2995 Follow KALS on AV Mobile SAN LUIS VALLEY REGIONAL 135.175 719-589-5669
KASEFAA ID ASE, ASOS, KASE 230553Z AUTO 17007KT 10SM CLR 10/M06 A2988 Follow KASE on AV Mobile ASPEN-PITKIN COUNTY AIRPORT 120.400 970-925-9168
KBKFFAA ID BKF, KBKF 230558Z 18017G22KT 10SM FEW130 BKN220 13/03 A2980 Follow KBKF on AV Mobile Aurora, Buckley Air Force Base Airport
K7BMFAA ID 7BM, AWOS-3, K7BM 230554Z AUTO 23013G20KT 10SM CLR 09/M07 A3004 RMK AO2 LTG DSNT SW AND W Follow K7BM on AV Mobile Cottonwood Pass 132.050 303-512-4919
KBDUFAA ID BDU, AWOS-3, KBDU 230556Z AUTO 00000KT 10SM CLR 13/M03 A2976 RMK AO2 Follow KBDU on AV Mobile Boulder Municipal Airport 118.825 303-541-9540
KAEJFAA ID AEJ, AWOS-3, KAEJ 230555Z AUTO 24003KT 10SM SCT100 09/M09 A2995 RMK AO2 T00911092 10172 20075 401921022 Follow KAEJ on AV Mobile Central Colorado Regional Airport 132.925 719-395-2599
KITRFAA ID ITR, ASOS, KITR 230553Z AUTO 16023KT 10SM CLR 08/04 A2986 RMK AO2 PK WND 16028/0528 SLP094 T00830039 10156 20083 58013 Follow KITR on AV Mobile Kit Carson County Airport 135.225 719-346-7036
K1V6FAA ID 1V6, AWOS-3, K1V6 230550Z AUTO 27007KT 10SM CLR 08/M01 A2985 RMK AO2 Follow K1V6 on AV Mobile CANON CITY 120.025
KAFFFAA ID AFF, KAFF 230558Z AUTO 34008KT 10SM CLR 03/M02 A2988 RMK AO2 SLP093 T00291022 10153 20029 57015 Follow KAFF on AV Mobile Air Force Academy
KCOSFAA ID COS, ASOS, KCOS 230554Z 35007KT 10SM FEW015 FEW220 08/02 A2988 Follow KCOS on AV Mobile COLORADO SPRINGS MUNI 125.000 719-637-9696
KFLYFAA ID FLY, AWOS-3PT, KFLY 230555Z AUTO 34004KT 10SM CLR 05/01 A2991 RMK AO2 T00490010 10149 20049 Follow KFLY on AV Mobile Meadowlake Airport, Peyton, CO 118.450 719-683-5371
KCCUFAA ID CCU, AWOS-3, KCCU 230555Z AUTO 10SM SCT110 03/M10 A3010 RMK AO2 LTG DSNT W Follow KCCU on AV Mobile Copper Mountain, Red Cliff Pass 118.075 970-968-1715
KCEZFAA ID CEZ, ASOS, KCEZ 230553Z AUTO 23010KT 10SM FEW110 13/M06 A2986 RMK AO2 SLP047 T01281061 10183 20117 58005 $ Follow KCEZ on AV Mobile CORTEZ MONTEZUMA COUNTY AIRPORT 135.625 970-564-0193
KCAGFAA ID CAG, ASOS, KCAG 230553Z AUTO 13005KT 10SM CLR 07/M01 A2982 Follow KCAG on AV Mobile CRAIG MOFFAT AIRPORT 135.425 970-824-2373
KRCVFAA ID RCV, AWOS-3PT, KRCV 230550Z AUTO 26010KT 10SM SCT120 10/M04 A2998 RMK AO2 T01011039 10153 20096 Follow KRCV on AV Mobile DEL NORTE 118.275 719-657-9017
KAJZFAA ID AJZ, AWOS-3, KAJZ 230555Z AUTO 00000KT 10SM OVC100 15/M03 A2980 RMK AO2 LTG DSNT W T01531026 10205 20136 402150110 Follow KAJZ on AV Mobile Blake Field Airport 134.000 970-874-3251
KDNRICAO ID KDNR Denver / Stapleton International, Co.
KAPAFAA ID APA, ASOS, KAPA 230553Z 17012KT 10SM FEW200 12/00 A2981 RMK AO2 SLP050 T01220000 10183 20122 56016 Follow KAPA on AV Mobile DENVER CENTENNIAL AIRPORT 120.300 303-706-9098
KDENFAA ID DEN, ASOS, KDEN 230553Z 17010KT 10SM SCT220 09/02 A2978 Follow KDEN on AV Mobile DENVER INTERNATIONAL AIRPORT 125.600 303-342-0838
KFTGFAA ID FTG, AWOS-3, KFTG 230555Z AUTO 17011G18KT 10SM CLR 11/03 A2980 RMK AO2 Follow KFTG on AV Mobile Front Range Airport 119.025 303-261-9104
KBJCFAA ID BJC, AWOS-3, KBJC 230554Z AUTO 23006KT 10SM CLR 10/M01 A2980 Follow KBJC on AV Mobile Rocky Mountain Metro Airport 126.250 720-887-8067
K4V5ICAO ID K4V5 Durango Aviation Weather Reporting Station
KDROFAA ID DRO, ASOS, KDRO 230553Z AUTO 00000KT 10SM CLR 07/M04 A2993 RMK AO2 SLP090 T00671044 10167 20039 58007 Follow KDRO on AV Mobile DURANGO-LA PLATA COUNTY AIRPORT 120.625 970-259-3579
KEGEFAA ID EGE, AWOS-3, KEGE 230556Z AUTO 00000KT 10SM CLR 05/M02 A2985 Follow KEGE on AV Mobile Eagle County Regional 135.575 970-524-7386
CO90FAA ID CO90, ASOS, KCLK 230635Z AUTO 15013G18KT 5SM BR SCT009 16/15 A3000 RMK AO2 Follow  on AV Mobile USAF Academy Bullseye Aux Airstrip 118.325 719-683-3346
K0COFAA ID 0CO, AWOS-3, K0CO 230555Z AUTO 19011G30KT 161V251 SCT110 00/M06 A3013 RMK AO2 LTG DSNT W PWINO Follow K0CO on AV Mobile EMPIRE 134.325
KEIKFAA ID EIK, AWOS-3, KEIK 230554Z AUTO 19003KT 10SM CLR 08/00 A2977 RMK AO2 T00751004 Follow KEIK on AV Mobile Erie Municipal Airport 133.825 303-604-4339
KFCSFAA ID FCS, KFCS 230458Z 31004KT 10SM FEW150 08/M01 A2989 A02A SLP080 T00811014 Follow KFCS on AV Mobile Fort Carson
KFCLICAO ID KFCL Fort Collins Supplementary Aviation Weather Reporting Station
KFNLFAA ID FNL, AWOS-3, KFNL 230556Z AUTO 36009KT 10SM CLR 09/01 A2976 RMK AO2 SLP049 T00940011 10194 20089 58018 Follow KFNL on AV Mobile Fort Collins/Loveland, Fort Collins-Loveland Municipal Airport 135.075 970-669-9187
KFMMFAA ID FMM, AWOS-3, KFMM 230555Z AUTO 09007KT 10SM CLR 07/01 A2981 RMK AO2 T00660011 10213 20066 402590015 Follow KFMM on AV Mobile Fort Morgan Municipal Airport 132.950 970-867-4823
KGNBFAA ID GNB, AWOS-3PT Granby-Grand County Airport 119.925 970-887-1803
KGJTFAA ID GJT, ASOS, KGJT 230553Z AUTO 30010KT 10SM OVC100 15/M01 A2977 Follow KGJT on AV Mobile GRAND JUNCTION WALKER FIELD 118.550 970-245-7881
KGXYFAA ID GXY, AWOS-3, KGXY 230556Z AUTO 09007KT 10SM CLR 11/03 A2977 RMK AO2 SLP069 T01060033 10217 20100 58012 Follow KGXY on AV Mobile Greeley, Greeley-Weld County Airport 135.175 970-352-3511
K2V9ICAO ID K2V9 Gunnison Aviation Weather Reporting Station
KGUCFAA ID GUC, AWOS-3, KGUC 230556Z AUTO 17014KT 10SM CLR 08/M03 A2996 RMK AO2 WSHFT 0524 SLP105 T00831028 10111 20044 401281011 56008 Follow KGUC on AV Mobile Gunnison, Gunnison-Crested Butte Regional Airport 135.075 970-641-3240
KHDNFAA ID HDN, AWOS-3, KHDN 230555Z AUTO 00000KT 10SM CLR 08/M02 A2983 RMK AO1 10150 20070 57027 Follow KHDN on AV Mobile Hayden, Yampa Valley Airport 119.275 970-276-3690
KHEQFAA ID HEQ, AWOS-3, KHEQ 230555Z AUTO 13010G14KT 10SM CLR 06/01 A2986 RMK AO2 Follow KHEQ on AV Mobile Holyoke Airport 119.275 970-854-3679
K20VFAA ID 20V, AWOS-3, K20V 230554Z AUTO 00000KT 10SM CLR 05/M01 A2990 RMK AO2 Follow K20V on AV Mobile Kremmling, Mc Elroy Airfield 118.425 970-724-9659
KLHXFAA ID LHX, ASOS, KLHX 230553Z AUTO 19019G24KT 10SM CLR 19/07 A2982 RMK AO2 PK WND 19028/0525 SLP056 T01890067 10267 20172 58005 Follow KLHX on AV Mobile LA JUNTA MUNICIPAL AIRPORT 135.525 719-384-5961
KVTPFAA ID VTP, AWOS-3, KVTP 221005Z AUTO 18016G29KT 10SM CLR 07/M05 A3027 RMK AO2 Follow KVTP on AV Mobile La Veta Mountain, La Veta Pass 119.925 719-587-3120
KLAAFAA ID LAA, ASOS, KLAA 230553Z AUTO 09007KT 9SM CLR 12/07 A2985 RMK AO2 SLP081 T01220067 10217 20117 58008 Follow KLAA on AV Mobile LAMAR MUNICIPAL AIRPORT 135.625 719-336-3854
KLXVFAA ID LXV, ASOS, KLXV 230553Z AUTO 18010KT 10SM FEW120 04/M08 A3000 Follow KLXV on AV Mobile LEADVILLE LAKE CO 118.375 719-486-2735
KLICFAA ID LIC, ASOS, KLIC 230555Z AUTO 12006KT 10SM CLR 05/03 A2987 RMK AO2 SLP083 T00500028 10161 20050 58010 Follow KLIC on AV Mobile LIMON MUNICIPAL AIRPORT 121.125 719-775-0515
KLMOFAA ID LMO, AWOS-3, KLMO 230553Z AUTO 00000KT 10SM CLR 09/01 A2978 RMK AO2 T00870008 Follow KLMO on AV Mobile Vance Brand Airport 120.000 303-684-7545
KEEOFAA ID EEO, ASOS, KEEO 230553Z AUTO 05003KT 10SM OVC095 07/01 A2982 RMK AO2 SLP038 T00720011 10150 20056 56025 Follow KEEO on AV Mobile MEEKER AIRPORT 135.525 970-878-5036
KMYPFAA ID MYP, AWOS-3, KMYP 230555Z AUTO 24031G38KT 10SM SCT080 SCT090 00/M05 A3023 RMK AO2 LTG DSNT W Follow KMYP on AV Mobile Salida Mountain, Monarch Pass 124.175 719-539-4436
KMTJFAA ID MTJ, ASOS, KMTJ 230553Z AUTO 26008KT 10SM BKN110 12/M04 A2984 RMK AO2 SLP049 T01171039 10172 20094 55004 Follow KMTJ on AV Mobile MONTROSE REGIONAL AIRPORT 135.225 970-249-1534
KMNHFAA ID MNH, AWOS-3, KMNH 230554Z AUTO 19009KT 10SM CLR 06/02 A2991 RMK AO2 Follow KMNH on AV Mobile Elbert Mountain, Monument Pass 134.375 303-648-3479
KCRVICAO ID KCRV Nederland Mountain, Corona Pass
KAIBFAA ID AIB, AWOS-3, KAIB 230555Z AUTO 00000KT 10SM OVC100 12/M05 A2984 RMK AO2 Follow KAIB on AV Mobile Hopkins Field Airport 132.525 970-864-2325
KPSOFAA ID PSO, AWOS-3, KPSO 230535Z AUTO 00000KT 10SM SCT120 07/M01 A3000 RMK AO2 T00671010 Follow KPSO on AV Mobile Stevens Field Airport 127.175 970-731-0365
KPEFICAO ID KPEF Peterson Air Force Base
KPUXICAO ID KPUX Pueblo NEXRAD
KPUBFAA ID PUB, ASOS, KPUB 230553Z AUTO 00000KT 10SM CLR 08/M01 A2981 Follow KPUB on AV Mobile PUEBLO MEMORIAL AIRPORT 125.250 719-948-2803
4V0FAA ID 4V0, AWOS-3PT, KCLK 230635Z AUTO 15013G18KT 5SM BR SCT009 16/15 A3000 RMK AO2 Follow  on AV Mobile RANGELY 119.025 970-675-2339
K1V1ICAO ID K1V1 Rifle Aviation Weather Reporting Station
KRILFAA ID RIL, ASOS, KRIL 230553Z AUTO 01003KT 10SM BKN110 09/02 A2979 RMK AO2 SLP038 60000 T00940022 10156 20094 56020 Follow KRIL on AV Mobile RIFLE GARFIELD COUNTY RGNL 135.275 970-625-2206
K04VFAA ID 04V, AWOS-3, K04V 230556Z AUTO 32005KT 10SM SCT110 06/M07 A2998 RMK AO2 Follow K04V on AV Mobile Saguache, Saguache Municipal Airport 118.625 719-655-2229
KS29ICAO ID KS29 Salida
KANKFAA ID ANK, AWOS-3, KANK 230555Z AUTO 18009KT 10SM CLR 13/M06 A3002 RMK AO1 T01311058 10196 20092 402050032 Follow KANK on AV Mobile Harriet Alexander Field Airport 133.850 719-539-5268
KSPDICAO ID KSPD, KSPD 230556Z AUTO 18018G26KT 13/08 A2991 RMK AO1 PK WND 19026/0548 SLP093 T01280078 10194 20111 58007 Follow KSPD on AV Mobile SPRINGFIELD COMANCHE NATL
KSBSFAA ID SBS, AWOS-3, KSBS 230554Z AUTO 00000KT 10SM CLR 05/M02 A2985 RMK AO1 T00531016 Follow KSBS on AV Mobile Steamboat Springs 118.325 970-879-7794
KSTKFAA ID STK, AWOS-3, KSTK 230550Z AUTO 16007KT 10SM CLR 08/03 A2981 RMK AO2 Follow KSTK on AV Mobile Sterling Municipal Airport 118.525 970-526-3009
K5SMFAA ID 5SM, AWOS-3, K5SM 230555Z AUTO 21009G15KT 170V240 10SM SCT065 BKN075 BKN110 02/M08 A3003 RMK AO2 LTG DSNT SW AND W Follow K5SM on AV Mobile Sunlight 126.075 970-384-3380
KTEXFAA ID TEX, AWOS-3, KTEX 230555Z AUTO 19007KT 10SM SCT070 OVC090 10/M10 A2999 RMK AO2 T00961096 10118 20093 Follow KTEX on AV Mobile Telluride, Telluride Regional Airport 118.325 970-728-1534
KTADFAA ID TAD, ASOS, KTAD 230554Z AUTO 20025G34KT 10SM CLR 17/03 A2986 RMK AO2 PK WND 21034/0522 SLP037 T01670033 10250 20144 58016 Follow KTAD on AV Mobile Trinidad, Perry Stokes Airport 119.025 719-845-1156
K33VFAA ID 33V, AWOS-3, K33V 190017Z AUTO 08004KT 10SM 02/M02 A2976 RMK AO2 Follow K33V on AV Mobile WALDEN 118.625 970-723-4513
4V1FAA ID 4V1, AWOS-3, KCLK 230635Z AUTO 15013G18KT 5SM BR SCT009 16/15 A3000 RMK AO2 Follow  on AV Mobile Spanish Peaks Airfield 123.600 719-738-1053
K4BMFAA ID 4BM, AWOS-3, K4BM 230554Z AUTO 22009G19KT 10SM SCT060 SCT070 BKN085 02/M12 A3013 RMK AO2 LTG DSNT SW Follow K4BM on AV Mobile Wilkerson Pass 132.3 303-512-4418
KC96ICAO ID KC96 Winter Park Resort
KCPWFAA ID CPW, AWOS-3, KCPW 230553Z AUTO 19017G30KT 10SM BKN070 OVC085 00/M08 A3017 RMK AO2 LTG DSNT W Follow KCPW on AV Mobile Pagosa Springs, Wolf Creek Pass 121.125 970-264-2180
K2V5FAA ID 2V5, AWOS-3, K2V5 230315Z AUTO 10SM CLR 10/03 A2992 RMK AO2 Follow K2V5 on AV Mobile Wray Municipal Airport 118.250 970-332-5930
K2V6FAA ID 2V6, AWOS-3, K2V6 230549Z AUTO 10007KT 10SM CLR 03/01 A2983 RMK AO2 Follow K2V6 on AV Mobile YUMA 135.375 970-848-3007

Click on the AV Mobile icon AV Mobile icon by any station to follow that AWOS feed on AirportView.net Mobile.

Legend: Commercial service airport with AWOS Commercial Airport AWOSNon-Commercial service airport with AWOS Non-Commercial Airport AWOS
Airport AWOS - Click symbol for weather report Fort Morgan Municipal Airport KFMM 230555Z AUTO 09007KT 10SM CLR 07/01 A2981 RMK AO2 T00660011 10213 20066 402590015 Hopkins Field Airport KAIB 230555Z AUTO 00000KT 10SM OVC100 12/M05 A2984 RMK AO2 Telluride, Telluride Regional Airport KTEX 230555Z AUTO 19007KT 10SM SCT070 OVC090 10/M10 A2999 RMK AO2 T00961096 10118 20093 Greeley, Greeley-Weld County Airport KGXY 230556Z AUTO 09007KT 10SM CLR 11/03 A2977 RMK AO2 SLP069 T01060033 10217 20100 58012 Front Range Airport KFTG 230555Z AUTO 17011G18KT 10SM CLR 11/03 A2980 RMK AO2 Rocky Mountain Metro Airport KBJC 230554Z AUTO 23006KT 10SM CLR 10/M01 A2980 DENVER CENTENNIAL AIRPORT KAPA 230553Z 17012KT 10SM FEW200 12/00 A2981 RMK AO2 SLP050 T01220000 10183 20122 56016 DENVER INTERNATIONAL AIRPORT KDEN 230553Z 17010KT 10SM SCT220 09/02 A2978 Fort Collins/Loveland, Fort Collins-Loveland Municipal Airport KFNL 230556Z AUTO 36009KT 10SM CLR 09/01 A2976 RMK AO2 SLP049 T00940011 10194 20089 58018 Boulder Municipal Airport KBDU 230556Z AUTO 00000KT 10SM CLR 13/M03 A2976 RMK AO2 Vance Brand Airport KLMO 230553Z AUTO 00000KT 10SM CLR 09/01 A2978 RMK AO2 T00870008 Sterling Municipal Airport KSTK 230550Z AUTO 16007KT 10SM CLR 08/03 A2981 RMK AO2 Holyoke Airport KHEQ 230555Z AUTO 13010G14KT 10SM CLR 06/01 A2986 RMK AO2 COLORADO PLAINS REGIONAL KAKO 230553Z AUTO 13012KT 10SM CLR 06/02 A2981 RMK AO2 SLP076 T00610017 10189 20061 58016 Kit Carson County Airport KITR 230553Z AUTO 16023KT 10SM CLR 08/04 A2986 RMK AO2 PK WND 16028/0528 SLP094 T00830039 10156 20083 58013 LIMON MUNICIPAL AIRPORT KLIC 230555Z AUTO 12006KT 10SM CLR 05/03 A2987 RMK AO2 SLP083 T00500028 10161 20050 58010 COLORADO SPRINGS MUNI KCOS 230554Z 35007KT 10SM FEW015 FEW220 08/02 A2988 LAMAR MUNICIPAL AIRPORT KLAA 230553Z AUTO 09007KT 9SM CLR 12/07 A2985 RMK AO2 SLP081 T01220067 10217 20117 58008 LA JUNTA MUNICIPAL AIRPORT KLHX 230553Z AUTO 19019G24KT 10SM CLR 19/07 A2982 RMK AO2 PK WND 19028/0525 SLP056 T01890067 10267 20172 58005 Trinidad, Perry Stokes Airport KTAD 230554Z AUTO 20025G34KT 10SM CLR 17/03 A2986 RMK AO2 PK WND 21034/0522 SLP037 T01670033 10250 20144 58016 PUEBLO MEMORIAL AIRPORT KPUB 230553Z AUTO 00000KT 10SM CLR 08/M01 A2981 CANON CITY 1V6 SAN LUIS VALLEY REGIONAL KALS 230552Z AUTO 20008KT 10SM SCT110 08/M06 A2995 Saguache, Saguache Municipal Airport K04V 230556Z AUTO 32005KT 10SM SCT110 06/M07 A2998 RMK AO2 Granby-Grand County Airport KGNB WALDEN 33V Steamboat Springs KSBS 230554Z AUTO 00000KT 10SM CLR 05/M02 A2985 RMK AO1 T00531016 Hayden, Yampa Valley Airport KHDN 230555Z AUTO 00000KT 10SM CLR 08/M02 A2983 RMK AO1 10150 20070 57027 Kremmling, Mc Elroy Airfield K20V 230554Z AUTO 00000KT 10SM CLR 05/M01 A2990 RMK AO2 LEADVILLE LAKE CO KLXV 230553Z AUTO 18010KT 10SM FEW120 04/M08 A3000 Eagle County Regional KEGE 230556Z AUTO 00000KT 10SM CLR 05/M02 A2985 CRAIG MOFFAT AIRPORT KCAG 230553Z AUTO 13005KT 10SM CLR 07/M01 A2982 MEEKER AIRPORT KEEO 230553Z AUTO 05003KT 10SM OVC095 07/01 A2982 RMK AO2 SLP038 T00720011 10150 20056 56025 ASPEN-PITKIN COUNTY AIRPORT KASE 230553Z AUTO 17007KT 10SM CLR 10/M06 A2988 Gunnison, Gunnison-Crested Butte Regional Airport KGUC 230556Z AUTO 17014KT 10SM CLR 08/M03 A2996 RMK AO2 WSHFT 0524 SLP105 T00831028 10111 20044 401281011 56008 DURANGO-LA PLATA COUNTY AIRPORT  KDRO 230553Z AUTO 00000KT 10SM CLR 07/M04 A2993 RMK AO2 SLP090 T00671044 10167 20039 58007 Stevens Field Airport KPSO 230535Z AUTO 00000KT 10SM SCT120 07/M01 A3000 RMK AO2 T00671010 CORTEZ MONTEZUMA COUNTY AIRPORT  KCEZ 230553Z AUTO 23010KT 10SM FEW110 13/M06 A2986 RMK AO2 SLP047 T01281061 10183 20117 58005 $ MONTROSE REGIONAL AIRPORT KMTJ 230553Z AUTO 26008KT 10SM BKN110 12/M04 A2984 RMK AO2 SLP049 T01171039 10172 20094 55004 RIFLE GARFIELD COUNTY RGNL KRIL 230553Z AUTO 01003KT 10SM BKN110 09/02 A2979 RMK AO2 SLP038 60000 T00940022 10156 20094 56020 GRAND JUNCTION WALKER FIELD KGJT 230553Z AUTO 30010KT 10SM OVC100 15/M01 A2977 Blake Field Airport KAJZ 230555Z AUTO 00000KT 10SM OVC100 15/M03 A2980 RMK AO2 LTG DSNT W T01531026 10205 20136 402150110 Central Colorado Regional Airport KAEJ 230555Z AUTO 24003KT 10SM SCT100 09/M09 A2995 RMK AO2 T00911092 10172 20075 401921022 Harriet Alexander Field Airport KANK 230555Z AUTO 18009KT 10SM CLR 13/M06 A3002 RMK AO1 T01311058 10196 20092 402050032 Erie Municipal Airport KEIK 230554Z AUTO 19003KT 10SM CLR 08/00 A2977 RMK AO2 T00751004 Wray Municipal Airport K2V5 230315Z AUTO 10SM CLR 10/03 A2992 RMK AO2
Legend: High Mountain AWOS Mountain Pass AWOS
Mountain Pass AWOS - Click symbol for weather report Pagosa Springs, Wolf Creek Pass KCPW 230553Z AUTO 19017G30KT 10SM BKN070 OVC085 00/M08 A3017 RMK AO2 LTG DSNT W Saguache, Saguache Municipal Airport K04V 230556Z AUTO 32005KT 10SM SCT110 06/M07 A2998 RMK AO2 Kremmling, Mc Elroy Airfield K20V 230554Z AUTO 00000KT 10SM CLR 05/M01 A2990 RMK AO2 La Veta Mountain, La Veta Pass KVTP 221005Z AUTO 18016G29KT 10SM CLR 07/M05 A3027 RMK AO2 Salida Mountain, Monarch Pass KMYP 230555Z AUTO 24031G38KT 10SM SCT080 SCT090 00/M05 A3023 RMK AO2 LTG DSNT W Cottonwood Pass K7BM 230554Z AUTO 23013G20KT 10SM CLR 09/M07 A3004 RMK AO2 LTG DSNT SW AND W Elbert Mountain, Monument Pass KMNH 230554Z AUTO 19009KT 10SM CLR 06/02 A2991 RMK AO2 Wilkerson Pass K4BM 230554Z AUTO 22009G19KT 10SM SCT060 SCT070 BKN085 02/M12 A3013 RMK AO2 LTG DSNT SW Copper Mountain, Red Cliff Pass KCCU 230555Z AUTO 10SM SCT110 03/M10 A3010 RMK AO2 LTG DSNT W EMPIRE 0CO Sunlight K5SM 230555Z AUTO 21009G15KT 170V240 10SM SCT065 BKN075 BKN110 02/M08 A3003 RMK AO2 LTG DSNT SW AND W
Leaders in ADS-B Avemco Insurance Company